sensor_id;sensor_type;location;lat;lon;timestamp;P1;durP1;ratioP1;P2;durP2;ratioP2
5195;SDS011;2617;51.006;12.436;2023-12-14T00:00:02;10.67;;;7.47;;
5195;SDS011;2617;51.006;12.436;2023-12-14T00:05:06;8.00;;;6.70;;
5195;SDS011;2617;51.006;12.436;2023-12-14T00:10:09;9.93;;;7.23;;
5195;SDS011;2617;51.006;12.436;2023-12-14T00:15:12;10.63;;;6.97;;
5195;SDS011;2617;51.006;12.436;2023-12-14T00:20:15;12.50;;;6.67;;
5195;SDS011;2617;51.006;12.436;2023-12-14T00:25:17;9.23;;;6.87;;
5195;SDS011;2617;51.006;12.436;2023-12-14T00:30:19;12.97;;;7.20;;
5195;SDS011;2617;51.006;12.436;2023-12-14T00:35:22;11.63;;;7.40;;
5195;SDS011;2617;51.006;12.436;2023-12-14T00:40:26;11.70;;;7.74;;
5195;SDS011;2617;51.006;12.436;2023-12-14T00:45:28;10.53;;;8.43;;
5195;SDS011;2617;51.006;12.436;2023-12-14T00:50:30;11.07;;;7.60;;
5195;SDS011;2617;51.006;12.436;2023-12-14T00:55:33;11.05;;;7.93;;
5195;SDS011;2617;51.006;12.436;2023-12-14T01:00:35;13.68;;;10.82;;
5195;SDS011;2617;51.006;12.436;2023-12-14T01:05:38;10.67;;;7.97;;
5195;SDS011;2617;51.006;12.436;2023-12-14T01:10:40;14.27;;;8.40;;
5195;SDS011;2617;51.006;12.436;2023-12-14T01:15:42;16.43;;;7.90;;
5195;SDS011;2617;51.006;12.436;2023-12-14T01:20:45;13.80;;;8.53;;
5195;SDS011;2617;51.006;12.436;2023-12-14T01:25:47;9.13;;;7.50;;
5195;SDS011;2617;51.006;12.436;2023-12-14T01:30:50;11.37;;;8.40;;
5195;SDS011;2617;51.006;12.436;2023-12-14T01:35:53;10.77;;;7.00;;
5195;SDS011;2617;51.006;12.436;2023-12-14T01:40:56;10.87;;;6.90;;
5195;SDS011;2617;51.006;12.436;2023-12-14T01:45:58;15.30;;;8.70;;
5195;SDS011;2617;51.006;12.436;2023-12-14T01:51:01;20.10;;;10.60;;
5195;SDS011;2617;51.006;12.436;2023-12-14T01:56:03;22.40;;;11.40;;
5195;SDS011;2617;51.006;12.436;2023-12-14T02:06:28;33.70;;;13.50;;
5195;SDS011;2617;51.006;12.436;2023-12-14T02:11:30;19.03;;;11.00;;
5195;SDS011;2617;51.006;12.436;2023-12-14T02:16:33;22.32;;;13.24;;
5195;SDS011;2617;51.006;12.436;2023-12-14T02:21:35;18.73;;;11.52;;
5195;SDS011;2617;51.006;12.436;2023-12-14T02:26:38;17.92;;;11.32;;
5195;SDS011;2617;51.006;12.436;2023-12-14T02:31:41;21.17;;;12.60;;
5195;SDS011;2617;51.006;12.436;2023-12-14T02:36:43;24.80;;;13.47;;
5195;SDS011;2617;51.006;12.436;2023-12-14T02:41:46;24.77;;;13.97;;
5195;SDS011;2617;51.006;12.436;2023-12-14T02:46:48;28.73;;;15.03;;
5195;SDS011;2617;51.006;12.436;2023-12-14T02:51:50;31.20;;;15.43;;
5195;SDS011;2617;51.006;12.436;2023-12-14T02:56:53;20.57;;;12.10;;
5195;SDS011;2617;51.006;12.436;2023-12-14T03:01:55;17.90;;;9.53;;
5195;SDS011;2617;51.006;12.436;2023-12-14T03:06:59;13.52;;;7.80;;
5195;SDS011;2617;51.006;12.436;2023-12-14T03:12:02;9.77;;;5.05;;
5195;SDS011;2617;51.006;12.436;2023-12-14T03:17:06;6.70;;;5.17;;
5195;SDS011;2617;51.006;12.436;2023-12-14T03:22:08;7.20;;;4.50;;
5195;SDS011;2617;51.006;12.436;2023-12-14T03:27:10;7.03;;;4.90;;
5195;SDS011;2617;51.006;12.436;2023-12-14T03:32:13;11.50;;;7.23;;
5195;SDS011;2617;51.006;12.436;2023-12-14T03:37:15;19.20;;;7.67;;
5195;SDS011;2617;51.006;12.436;2023-12-14T03:42:18;32.87;;;8.83;;
5195;SDS011;2617;51.006;12.436;2023-12-14T03:47:20;50.87;;;12.07;;
5195;SDS011;2617;51.006;12.436;2023-12-14T03:52:23;26.13;;;10.40;;
5195;SDS011;2617;51.006;12.436;2023-12-14T03:57:25;42.90;;;10.73;;
5195;SDS011;2617;51.006;12.436;2023-12-14T04:02:28;67.23;;;11.97;;
5195;SDS011;2617;51.006;12.436;2023-12-14T04:07:30;71.93;;;12.47;;
5195;SDS011;2617;51.006;12.436;2023-12-14T04:12:32;40.27;;;9.80;;
5195;SDS011;2617;51.006;12.436;2023-12-14T04:17:53;33.63;;;8.90;;
5195;SDS011;2617;51.006;12.436;2023-12-14T04:22:55;16.23;;;6.63;;
5195;SDS011;2617;51.006;12.436;2023-12-14T04:27:57;17.93;;;8.10;;
5195;SDS011;2617;51.006;12.436;2023-12-14T04:32:59;28.97;;;9.03;;
5195;SDS011;2617;51.006;12.436;2023-12-14T04:38:00;120.70;;;10.70;;
5195;SDS011;2617;51.006;12.436;2023-12-14T04:43:03;32.40;;;10.77;;
5195;SDS011;2617;51.006;12.436;2023-12-14T04:48:05;31.87;;;9.30;;
5195;SDS011;2617;51.006;12.436;2023-12-14T04:53:06;34.23;;;9.47;;
5195;SDS011;2617;51.006;12.436;2023-12-14T04:58:08;68.07;;;8.90;;
5195;SDS011;2617;51.006;12.436;2023-12-14T05:03:10;36.35;;;9.23;;
5195;SDS011;2617;51.006;12.436;2023-12-14T05:08:12;29.20;;;8.75;;
5195;SDS011;2617;51.006;12.436;2023-12-14T05:13:13;32.40;;;9.43;;
5195;SDS011;2617;51.006;12.436;2023-12-14T05:18:16;25.70;;;8.53;;
5195;SDS011;2617;51.006;12.436;2023-12-14T05:23:18;33.33;;;11.47;;
5195;SDS011;2617;51.006;12.436;2023-12-14T05:28:22;25.83;;;10.50;;
5195;SDS011;2617;51.006;12.436;2023-12-14T05:33:25;24.67;;;9.97;;
5195;SDS011;2617;51.006;12.436;2023-12-14T05:38:26;51.10;;;11.63;;
5195;SDS011;2617;51.006;12.436;2023-12-14T05:43:29;61.97;;;11.23;;
5195;SDS011;2617;51.006;12.436;2023-12-14T05:48:31;61.85;;;11.20;;
5195;SDS011;2617;51.006;12.436;2023-12-14T05:53:34;69.97;;;11.10;;
5195;SDS011;2617;51.006;12.436;2023-12-14T05:58:36;69.07;;;10.70;;
5195;SDS011;2617;51.006;12.436;2023-12-14T06:03:38;57.65;;;8.90;;
5195;SDS011;2617;51.006;12.436;2023-12-14T06:08:40;75.23;;;10.57;;
5195;SDS011;2617;51.006;12.436;2023-12-14T06:13:45;61.07;;;10.60;;
5195;SDS011;2617;51.006;12.436;2023-12-14T06:18:47;47.43;;;8.20;;
5195;SDS011;2617;51.006;12.436;2023-12-14T06:23:49;25.20;;;7.20;;
5195;SDS011;2617;51.006;12.436;2023-12-14T06:28:51;29.20;;;7.90;;
5195;SDS011;2617;51.006;12.436;2023-12-14T06:33:53;13.47;;;6.30;;
5195;SDS011;2617;51.006;12.436;2023-12-14T06:38:55;18.93;;;5.83;;
5195;SDS011;2617;51.006;12.436;2023-12-14T06:43:57;24.33;;;7.30;;
5195;SDS011;2617;51.006;12.436;2023-12-14T06:48:59;42.73;;;11.83;;
5195;SDS011;2617;51.006;12.436;2023-12-14T06:54:01;28.05;;;6.97;;
5195;SDS011;2617;51.006;12.436;2023-12-14T06:59:03;28.23;;;7.37;;
5195;SDS011;2617;51.006;12.436;2023-12-14T07:04:05;23.27;;;10.57;;
5195;SDS011;2617;51.006;12.436;2023-12-14T07:09:06;29.70;;;11.97;;
5195;SDS011;2617;51.006;12.436;2023-12-14T07:14:08;20.13;;;11.40;;
5195;SDS011;2617;51.006;12.436;2023-12-14T07:19:10;22.90;;;11.07;;
5195;SDS011;2617;51.006;12.436;2023-12-14T07:24:12;18.27;;;9.50;;
5195;SDS011;2617;51.006;12.436;2023-12-14T07:29:14;20.60;;;7.80;;
5195;SDS011;2617;51.006;12.436;2023-12-14T07:34:16;22.27;;;8.90;;
5195;SDS011;2617;51.006;12.436;2023-12-14T07:39:18;25.75;;;11.55;;
5195;SDS011;2617;51.006;12.436;2023-12-14T07:44:19;27.13;;;12.10;;
5195;SDS011;2617;51.006;12.436;2023-12-14T07:49:21;18.50;;;9.23;;
5195;SDS011;2617;51.006;12.436;2023-12-14T07:54:23;19.17;;;10.50;;
5195;SDS011;2617;51.006;12.436;2023-12-14T07:59:25;17.83;;;9.00;;
5195;SDS011;2617;51.006;12.436;2023-12-14T08:04:26;13.70;;;8.47;;
5195;SDS011;2617;51.006;12.436;2023-12-14T08:09:29;21.83;;;10.07;;
5195;SDS011;2617;51.006;12.436;2023-12-14T08:14:33;18.00;;;9.77;;
5195;SDS011;2617;51.006;12.436;2023-12-14T08:19:35;15.63;;;7.97;;
5195;SDS011;2617;51.006;12.436;2023-12-14T08:24:37;14.10;;;8.00;;
5195;SDS011;2617;51.006;12.436;2023-12-14T08:29:39;15.33;;;8.70;;
5195;SDS011;2617;51.006;12.436;2023-12-14T08:34:42;13.13;;;8.25;;
5195;SDS011;2617;51.006;12.436;2023-12-14T08:39:44;14.40;;;8.10;;
5195;SDS011;2617;51.006;12.436;2023-12-14T08:44:46;19.37;;;7.93;;
5195;SDS011;2617;51.006;12.436;2023-12-14T08:49:48;15.13;;;8.80;;
5195;SDS011;2617;51.006;12.436;2023-12-14T08:54:50;14.20;;;8.40;;
5195;SDS011;2617;51.006;12.436;2023-12-14T08:59:51;15.40;;;8.10;;
5195;SDS011;2617;51.006;12.436;2023-12-14T09:04:53;12.80;;;7.53;;
5195;SDS011;2617;51.006;12.436;2023-12-14T09:09:55;12.87;;;8.43;;
5195;SDS011;2617;51.006;12.436;2023-12-14T09:14:56;9.60;;;5.90;;
5195;SDS011;2617;51.006;12.436;2023-12-14T09:19:59;13.40;;;7.67;;
5195;SDS011;2617;51.006;12.436;2023-12-14T09:25:00;16.30;;;6.97;;
5195;SDS011;2617;51.006;12.436;2023-12-14T09:30:02;14.43;;;7.80;;
5195;SDS011;2617;51.006;12.436;2023-12-14T09:35:04;15.37;;;8.47;;
5195;SDS011;2617;51.006;12.436;2023-12-14T09:40:06;13.77;;;7.43;;
5195;SDS011;2617;51.006;12.436;2023-12-14T09:45:09;17.53;;;8.30;;
5195;SDS011;2617;51.006;12.436;2023-12-14T09:50:11;12.37;;;7.40;;
5195;SDS011;2617;51.006;12.436;2023-12-14T09:55:13;13.53;;;7.30;;
5195;SDS011;2617;51.006;12.436;2023-12-14T10:00:32;18.60;;;9.32;;
5195;SDS011;2617;51.006;12.436;2023-12-14T10:05:33;15.53;;;10.03;;
5195;SDS011;2617;51.006;12.436;2023-12-14T10:10:35;14.57;;;8.57;;
5195;SDS011;2617;51.006;12.436;2023-12-14T10:15:41;18.43;;;7.80;;
5195;SDS011;2617;51.006;12.436;2023-12-14T10:20:44;20.63;;;9.50;;
5195;SDS011;2617;51.006;12.436;2023-12-14T10:25:45;10.33;;;6.90;;
5195;SDS011;2617;51.006;12.436;2023-12-14T10:30:47;11.87;;;6.57;;
5195;SDS011;2617;51.006;12.436;2023-12-14T10:35:49;13.73;;;8.17;;
5195;SDS011;2617;51.006;12.436;2023-12-14T10:40:51;14.87;;;7.45;;
5195;SDS011;2617;51.006;12.436;2023-12-14T10:45:52;14.57;;;7.87;;
5195;SDS011;2617;51.006;12.436;2023-12-14T10:50:54;16.17;;;8.30;;
5195;SDS011;2617;51.006;12.436;2023-12-14T10:55:57;15.23;;;7.53;;
5195;SDS011;2617;51.006;12.436;2023-12-14T11:00:59;11.67;;;7.00;;
5195;SDS011;2617;51.006;12.436;2023-12-14T11:06:02;9.47;;;6.77;;
5195;SDS011;2617;51.006;12.436;2023-12-14T11:11:04;10.00;;;6.67;;
5195;SDS011;2617;51.006;12.436;2023-12-14T11:16:07;6.93;;;5.35;;
5195;SDS011;2617;51.006;12.436;2023-12-14T11:21:10;9.10;;;6.40;;
5195;SDS011;2617;51.006;12.436;2023-12-14T11:26:14;7.05;;;5.25;;
5195;SDS011;2617;51.006;12.436;2023-12-14T11:31:13;6.55;;;5.03;;
5195;SDS011;2617;51.006;12.436;2023-12-14T11:36:16;8.33;;;5.40;;
5195;SDS011;2617;51.006;12.436;2023-12-14T11:41:19;9.67;;;6.47;;
5195;SDS011;2617;51.006;12.436;2023-12-14T11:46:20;10.23;;;6.50;;
5195;SDS011;2617;51.006;12.436;2023-12-14T11:51:22;10.87;;;6.40;;
5195;SDS011;2617;51.006;12.436;2023-12-14T11:56:24;14.45;;;9.90;;
5195;SDS011;2617;51.006;12.436;2023-12-14T12:01:26;14.30;;;7.33;;
5195;SDS011;2617;51.006;12.436;2023-12-14T12:06:28;13.50;;;9.23;;
5195;SDS011;2617;51.006;12.436;2023-12-14T12:11:29;15.20;;;7.50;;
5195;SDS011;2617;51.006;12.436;2023-12-14T12:16:32;13.33;;;7.27;;
5195;SDS011;2617;51.006;12.436;2023-12-14T12:21:33;16.10;;;9.23;;
5195;SDS011;2617;51.006;12.436;2023-12-14T12:26:35;17.93;;;7.73;;
5195;SDS011;2617;51.006;12.436;2023-12-14T12:31:37;20.60;;;10.53;;
5195;SDS011;2617;51.006;12.436;2023-12-14T12:36:39;21.63;;;11.00;;
5195;SDS011;2617;51.006;12.436;2023-12-14T12:41:40;27.40;;;13.70;;
5195;SDS011;2617;51.006;12.436;2023-12-14T12:46:43;23.10;;;12.20;;
5195;SDS011;2617;51.006;12.436;2023-12-14T12:51:45;24.37;;;12.23;;
5195;SDS011;2617;51.006;12.436;2023-12-14T12:56:47;25.27;;;11.07;;
5195;SDS011;2617;51.006;12.436;2023-12-14T13:01:49;36.07;;;12.90;;
5195;SDS011;2617;51.006;12.436;2023-12-14T13:06:50;22.53;;;10.27;;
5195;SDS011;2617;51.006;12.436;2023-12-14T13:11:53;21.17;;;10.27;;
5195;SDS011;2617;51.006;12.436;2023-12-14T13:16:55;18.57;;;9.47;;
5195;SDS011;2617;51.006;12.436;2023-12-14T13:21:58;19.03;;;9.80;;
5195;SDS011;2617;51.006;12.436;2023-12-14T13:27:00;24.58;;;12.43;;
5195;SDS011;2617;51.006;12.436;2023-12-14T13:32:03;38.27;;;18.30;;
5195;SDS011;2617;51.006;12.436;2023-12-14T13:37:05;23.42;;;12.70;;
5195;SDS011;2617;51.006;12.436;2023-12-14T13:42:06;28.53;;;13.50;;
5195;SDS011;2617;51.006;12.436;2023-12-14T13:47:08;32.00;;;15.47;;
5195;SDS011;2617;51.006;12.436;2023-12-14T13:52:10;28.80;;;12.97;;
5195;SDS011;2617;51.006;12.436;2023-12-14T13:57:12;17.80;;;11.23;;
5195;SDS011;2617;51.006;12.436;2023-12-14T14:02:14;16.83;;;10.07;;
5195;SDS011;2617;51.006;12.436;2023-12-14T14:07:16;10.43;;;7.60;;
5195;SDS011;2617;51.006;12.436;2023-12-14T14:12:19;13.00;;;8.13;;
5195;SDS011;2617;51.006;12.436;2023-12-14T14:17:20;19.23;;;11.80;;
5195;SDS011;2617;51.006;12.436;2023-12-14T14:22:22;14.97;;;10.37;;
5195;SDS011;2617;51.006;12.436;2023-12-14T14:27:25;16.87;;;8.80;;
5195;SDS011;2617;51.006;12.436;2023-12-14T14:32:27;20.67;;;13.40;;
5195;SDS011;2617;51.006;12.436;2023-12-14T14:37:29;21.57;;;11.77;;
5195;SDS011;2617;51.006;12.436;2023-12-14T14:42:31;19.75;;;10.90;;
5195;SDS011;2617;51.006;12.436;2023-12-14T14:47:33;43.07;;;10.80;;
5195;SDS011;2617;51.006;12.436;2023-12-14T14:52:35;15.53;;;9.83;;
5195;SDS011;2617;51.006;12.436;2023-12-14T14:57:37;23.37;;;13.03;;
5195;SDS011;2617;51.006;12.436;2023-12-14T15:02:38;17.57;;;9.90;;
5195;SDS011;2617;51.006;12.436;2023-12-14T15:07:41;18.95;;;10.60;;
5195;SDS011;2617;51.006;12.436;2023-12-14T15:12:44;19.92;;;12.18;;
5195;SDS011;2617;51.006;12.436;2023-12-14T15:17:45;12.47;;;8.47;;
5195;SDS011;2617;51.006;12.436;2023-12-14T15:22:47;12.90;;;8.10;;
5195;SDS011;2617;51.006;12.436;2023-12-14T15:27:49;15.60;;;8.27;;
5195;SDS011;2617;51.006;12.436;2023-12-14T15:32:51;13.93;;;7.33;;
5195;SDS011;2617;51.006;12.436;2023-12-14T15:37:53;15.13;;;7.53;;
5195;SDS011;2617;51.006;12.436;2023-12-14T15:42:55;10.13;;;6.80;;
5195;SDS011;2617;51.006;12.436;2023-12-14T15:47:57;11.43;;;7.57;;
5195;SDS011;2617;51.006;12.436;2023-12-14T15:52:59;14.80;;;9.27;;
5195;SDS011;2617;51.006;12.436;2023-12-14T15:58:01;13.67;;;8.03;;
5195;SDS011;2617;51.006;12.436;2023-12-14T16:03:02;13.50;;;8.47;;
5195;SDS011;2617;51.006;12.436;2023-12-14T16:08:05;15.20;;;8.07;;
5195;SDS011;2617;51.006;12.436;2023-12-14T16:13:07;12.03;;;7.93;;
5195;SDS011;2617;51.006;12.436;2023-12-14T16:18:08;15.73;;;8.80;;
5195;SDS011;2617;51.006;12.436;2023-12-14T16:23:10;16.00;;;9.73;;
5195;SDS011;2617;51.006;12.436;2023-12-14T16:28:12;14.03;;;8.27;;
5195;SDS011;2617;51.006;12.436;2023-12-14T16:33:14;11.63;;;7.73;;
5195;SDS011;2617;51.006;12.436;2023-12-14T16:38:15;10.50;;;7.20;;
5195;SDS011;2617;51.006;12.436;2023-12-14T16:43:18;11.30;;;7.20;;
5195;SDS011;2617;51.006;12.436;2023-12-14T16:48:20;10.38;;;7.32;;
5195;SDS011;2617;51.006;12.436;2023-12-14T16:53:23;7.33;;;5.60;;
5195;SDS011;2617;51.006;12.436;2023-12-14T16:58:25;10.83;;;6.77;;
5195;SDS011;2617;51.006;12.436;2023-12-14T17:03:28;10.33;;;6.73;;
5195;SDS011;2617;51.006;12.436;2023-12-14T17:08:30;12.97;;;6.00;;
5195;SDS011;2617;51.006;12.436;2023-12-14T17:13:32;10.90;;;7.50;;
5195;SDS011;2617;51.006;12.436;2023-12-14T17:18:35;11.70;;;7.10;;
5195;SDS011;2617;51.006;12.436;2023-12-14T17:23:35;8.90;;;5.53;;
5195;SDS011;2617;51.006;12.436;2023-12-14T17:28:36;9.37;;;6.70;;
5195;SDS011;2617;51.006;12.436;2023-12-14T17:33:38;13.62;;;8.20;;
5195;SDS011;2617;51.006;12.436;2023-12-14T17:38:40;15.10;;;9.40;;
5195;SDS011;2617;51.006;12.436;2023-12-14T17:43:42;12.40;;;8.10;;
5195;SDS011;2617;51.006;12.436;2023-12-14T17:48:44;13.85;;;7.93;;
5195;SDS011;2617;51.006;12.436;2023-12-14T17:53:46;12.00;;;7.20;;
5195;SDS011;2617;51.006;12.436;2023-12-14T17:58:48;11.20;;;6.70;;
5195;SDS011;2617;51.006;12.436;2023-12-14T18:03:50;12.93;;;7.50;;
5195;SDS011;2617;51.006;12.436;2023-12-14T18:08:52;14.10;;;7.50;;
5195;SDS011;2617;51.006;12.436;2023-12-14T18:13:54;11.00;;;6.97;;
5195;SDS011;2617;51.006;12.436;2023-12-14T18:18:56;12.13;;;7.17;;
5195;SDS011;2617;51.006;12.436;2023-12-14T18:23:57;13.03;;;7.57;;
5195;SDS011;2617;51.006;12.436;2023-12-14T18:29:00;14.40;;;8.30;;
5195;SDS011;2617;51.006;12.436;2023-12-14T18:34:02;13.88;;;7.43;;
5195;SDS011;2617;51.006;12.436;2023-12-14T18:39:03;15.38;;;8.68;;
5195;SDS011;2617;51.006;12.436;2023-12-14T18:44:06;15.33;;;8.30;;
5195;SDS011;2617;51.006;12.436;2023-12-14T18:49:08;14.60;;;9.10;;
5195;SDS011;2617;51.006;12.436;2023-12-14T18:54:10;14.80;;;8.67;;
5195;SDS011;2617;51.006;12.436;2023-12-14T18:59:12;12.40;;;8.70;;
5195;SDS011;2617;51.006;12.436;2023-12-14T19:04:14;13.20;;;8.77;;
5195;SDS011;2617;51.006;12.436;2023-12-14T19:09:16;10.43;;;6.70;;
5195;SDS011;2617;51.006;12.436;2023-12-14T19:14:18;12.30;;;7.37;;
5195;SDS011;2617;51.006;12.436;2023-12-14T19:19:20;9.87;;;7.50;;
5195;SDS011;2617;51.006;12.436;2023-12-14T19:24:21;12.13;;;7.20;;
5195;SDS011;2617;51.006;12.436;2023-12-14T19:29:23;10.27;;;6.10;;
5195;SDS011;2617;51.006;12.436;2023-12-14T19:34:25;10.17;;;6.30;;
5195;SDS011;2617;51.006;12.436;2023-12-14T19:39:26;11.53;;;6.50;;
5195;SDS011;2617;51.006;12.436;2023-12-14T19:44:29;10.00;;;6.03;;
5195;SDS011;2617;51.006;12.436;2023-12-14T19:49:31;8.90;;;5.37;;
5195;SDS011;2617;51.006;12.436;2023-12-14T19:54:33;9.17;;;5.90;;
5195;SDS011;2617;51.006;12.436;2023-12-14T19:59:37;10.07;;;5.83;;
5195;SDS011;2617;51.006;12.436;2023-12-14T20:04:37;11.13;;;7.17;;
5195;SDS011;2617;51.006;12.436;2023-12-14T20:09:39;12.40;;;7.67;;
5195;SDS011;2617;51.006;12.436;2023-12-14T20:14:41;11.93;;;7.10;;
5195;SDS011;2617;51.006;12.436;2023-12-14T20:19:43;16.57;;;7.40;;
5195;SDS011;2617;51.006;12.436;2023-12-14T20:24:44;13.00;;;7.67;;
5195;SDS011;2617;51.006;12.436;2023-12-14T20:29:47;15.38;;;8.38;;
5195;SDS011;2617;51.006;12.436;2023-12-14T20:34:50;15.18;;;9.43;;
5195;SDS011;2617;51.006;12.436;2023-12-14T20:39:52;12.37;;;7.53;;
5195;SDS011;2617;51.006;12.436;2023-12-14T20:44:54;10.70;;;7.97;;
5195;SDS011;2617;51.006;12.436;2023-12-14T20:49:55;13.00;;;7.47;;
5195;SDS011;2617;51.006;12.436;2023-12-14T20:54:57;12.77;;;7.77;;
5195;SDS011;2617;51.006;12.436;2023-12-14T20:59:59;10.77;;;6.30;;
5195;SDS011;2617;51.006;12.436;2023-12-14T21:05:01;13.67;;;7.30;;
5195;SDS011;2617;51.006;12.436;2023-12-14T21:10:03;10.57;;;7.10;;
5195;SDS011;2617;51.006;12.436;2023-12-14T21:15:05;10.00;;;6.57;;
5195;SDS011;2617;51.006;12.436;2023-12-14T21:20:07;12.30;;;8.20;;
5195;SDS011;2617;51.006;12.436;2023-12-14T21:25:10;14.77;;;8.60;;
5195;SDS011;2617;51.006;12.436;2023-12-14T21:30:13;6.90;;;4.33;;
5195;SDS011;2617;51.006;12.436;2023-12-14T21:35:16;7.80;;;5.60;;
5195;SDS011;2617;51.006;12.436;2023-12-14T21:40:18;7.85;;;4.60;;
5195;SDS011;2617;51.006;12.436;2023-12-14T21:45:21;7.17;;;5.13;;
5195;SDS011;2617;51.006;12.436;2023-12-14T21:50:23;10.88;;;5.30;;
5195;SDS011;2617;51.006;12.436;2023-12-14T21:55:25;9.13;;;5.60;;
5195;SDS011;2617;51.006;12.436;2023-12-14T22:00:28;9.47;;;5.30;;
5195;SDS011;2617;51.006;12.436;2023-12-14T22:05:30;8.70;;;5.23;;
5195;SDS011;2617;51.006;12.436;2023-12-14T22:10:33;9.20;;;5.82;;
5195;SDS011;2617;51.006;12.436;2023-12-14T22:15:35;8.10;;;5.65;;
5195;SDS011;2617;51.006;12.436;2023-12-14T22:20:37;9.90;;;5.50;;
5195;SDS011;2617;51.006;12.436;2023-12-14T22:25:39;11.57;;;6.60;;
5195;SDS011;2617;51.006;12.436;2023-12-14T22:30:41;13.83;;;7.50;;
5195;SDS011;2617;51.006;12.436;2023-12-14T22:35:43;13.53;;;8.23;;
5195;SDS011;2617;51.006;12.436;2023-12-14T22:40:46;8.82;;;6.40;;
5195;SDS011;2617;51.006;12.436;2023-12-14T22:45:48;9.90;;;7.37;;
5195;SDS011;2617;51.006;12.436;2023-12-14T22:50:50;12.17;;;6.77;;
5195;SDS011;2617;51.006;12.436;2023-12-14T22:55:52;11.63;;;7.30;;
5195;SDS011;2617;51.006;12.436;2023-12-14T23:00:55;10.82;;;7.22;;
5195;SDS011;2617;51.006;12.436;2023-12-14T23:05:56;15.93;;;8.00;;
5195;SDS011;2617;51.006;12.436;2023-12-14T23:10:58;13.77;;;7.70;;
5195;SDS011;2617;51.006;12.436;2023-12-14T23:16:00;11.67;;;7.57;;
5195;SDS011;2617;51.006;12.436;2023-12-14T23:21:02;15.30;;;7.47;;
5195;SDS011;2617;51.006;12.436;2023-12-14T23:26:05;17.75;;;8.50;;
5195;SDS011;2617;51.006;12.436;2023-12-14T23:31:07;21.20;;;9.20;;
5195;SDS011;2617;51.006;12.436;2023-12-14T23:36:09;12.27;;;7.60;;
5195;SDS011;2617;51.006;12.436;2023-12-14T23:41:11;15.50;;;9.17;;
5195;SDS011;2617;51.006;12.436;2023-12-14T23:46:13;15.90;;;7.87;;
5195;SDS011;2617;51.006;12.436;2023-12-14T23:51:14;14.93;;;7.33;;
5195;SDS011;2617;51.006;12.436;2023-12-14T23:56:17;13.63;;;8.47;;
